createdAt,value
2023-03-16T04:54:35.431Z,60.84
2023-03-16T04:55:35.419Z,62.92
2023-03-16T04:56:35.439Z,62.40
2023-03-16T04:57:35.408Z,63.13
2023-03-16T05:03:35.342Z,62.43
2023-03-16T05:04:35.334Z,62.12
2023-03-16T05:09:35.285Z,67.33
2023-03-16T05:10:35.274Z,68.27
2023-03-16T05:11:35.308Z,69.31
2023-03-16T05:12:35.251Z,68.89
2023-03-16T05:13:35.235Z,67.77
2023-03-16T05:14:35.238Z,68.37
2023-03-16T05:15:35.316Z,68.20
2023-03-16T05:16:35.206Z,67.99
2023-03-16T05:17:35.199Z,66.11
2023-03-16T05:18:35.195Z,65.35
2023-03-16T05:19:35.178Z,66.99
2023-03-16T05:20:35.165Z,68.13
2023-03-16T05:21:35.154Z,67.40
2023-03-16T05:22:35.148Z,68.45
2023-03-16T05:23:35.142Z,68.55
2023-03-16T05:24:35.127Z,99.99
2023-03-16T05:25:35.135Z,68.86
2023-03-16T05:26:35.103Z,67.30
2023-03-16T05:27:35.095Z,66.81
2023-03-16T05:29:35.074Z,64.59
2023-03-16T05:30:35.062Z,61.57
2023-03-16T05:31:35.147Z,61.57
2023-03-16T05:32:35.110Z,60.21
2023-03-16T05:33:35.033Z,59.90
2023-03-16T05:34:35.022Z,58.96
2023-03-16T05:35:35.068Z,58.20
2023-03-16T05:36:35.005Z,59.04
2023-03-16T05:37:34.988Z,60.81
2023-03-16T05:38:34.982Z,61.23
2023-03-16T05:39:34.973Z,62.27
2023-03-16T05:40:34.963Z,62.79
2023-03-16T05:42:34.939Z,64.80
2023-03-16T05:43:34.930Z,64.83
2023-03-16T05:44:34.918Z,63.89
2023-03-16T05:45:34.913Z,62.71
2023-03-16T05:46:35.005Z,62.09
2023-03-16T05:47:34.916Z,99.99
2023-03-16T05:48:34.882Z,63.73
2023-03-16T05:49:34.869Z,63.00
2023-03-16T05:50:34.859Z,61.12
2023-03-16T05:51:34.848Z,62.45
2023-03-16T05:52:34.840Z,64.11
2023-03-16T05:53:34.830Z,63.18
2023-03-16T05:54:34.818Z,64.22
2023-03-16T05:55:34.807Z,64.45
2023-03-16T05:56:34.798Z,63.94
2023-03-16T05:57:34.787Z,63.31
2023-03-16T05:58:34.836Z,62.68
2023-03-16T05:59:34.774Z,63.94
2023-03-16T06:00:34.760Z,62.27
2023-03-16T06:01:34.744Z,62.37
2023-03-16T06:02:34.832Z,62.65
2023-03-16T06:03:34.814Z,62.48
2023-03-16T06:04:34.732Z,61.65
2023-03-16T06:05:34.704Z,99.99
2023-03-16T06:06:34.700Z,61.85
2023-03-16T06:07:34.697Z,61.85
2023-03-16T06:08:34.674Z,61.43
2023-03-16T06:09:34.678Z,61.75
2023-03-16T06:10:34.656Z,62.32
2023-03-16T06:13:34.621Z,99.99
2023-03-16T06:14:34.614Z,67.48
2023-03-16T06:15:34.601Z,65.60
2023-03-16T06:16:34.676Z,64.25
2023-03-16T06:17:34.600Z,58.28
2023-03-16T06:18:34.582Z,63.28
2023-03-16T06:19:34.592Z,64.74
2023-03-16T06:20:34.554Z,64.32
2023-03-16T06:21:34.546Z,64.63
2023-03-16T06:22:34.529Z,63.90
2023-03-16T06:23:34.525Z,63.70
2023-03-16T06:24:34.512Z,63.73
2023-03-16T06:25:34.504Z,64.87
2023-03-16T06:26:34.497Z,65.81
2023-03-16T06:27:34.491Z,64.66
2023-03-16T06:28:34.558Z,63.94
2023-03-16T06:29:34.466Z,61.85
2023-03-16T06:30:34.456Z,61.02
2023-03-16T06:31:34.506Z,60.19
2023-03-16T06:32:34.475Z,60.50
2023-03-16T06:33:34.464Z,63.39
2023-03-16T06:34:36.273Z,64.01
2023-03-16T06:35:34.477Z,65.78
2023-03-16T06:36:34.416Z,66.09
2023-03-16T06:37:34.388Z,67.13
2023-03-16T06:38:34.433Z,68.28
2023-03-16T06:39:34.366Z,68.17
2023-03-16T06:40:34.352Z,68.28
2023-03-16T06:41:34.340Z,69.11
2023-03-16T06:42:34.334Z,70.47
2023-03-16T06:43:34.328Z,99.99
2023-03-16T06:44:34.308Z,70.78
2023-03-16T06:45:34.357Z,99.99
2023-03-16T06:47:34.285Z,68.35
2023-03-16T06:48:34.274Z,65.54
2023-03-16T06:49:34.263Z,63.46
2023-03-16T06:50:34.253Z,63.56
2023-03-16T06:51:34.291Z,63.46
2023-03-16T06:52:34.237Z,64.37
2023-03-16T06:53:34.258Z,64.37
2023-03-16T06:54:34.220Z,63.33
2023-03-16T06:55:34.208Z,61.87
2023-03-16T06:56:34.194Z,61.14
2023-03-16T06:58:34.177Z,61.63
2023-03-16T06:59:34.163Z,60.49
2023-03-16T07:00:34.283Z,61.22
2023-03-16T07:01:34.192Z,63.40
2023-03-16T07:02:34.130Z,62.88
2023-03-16T07:04:34.236Z,64.96
2023-03-16T07:05:34.106Z,66.41
2023-03-16T07:09:36.751Z,67.66
2023-03-16T07:11:34.046Z,63.27
2023-03-16T07:12:34.035Z,63.37
2023-03-16T07:13:34.021Z,99.99
2023-03-16T07:14:34.011Z,99.99
2023-03-16T07:15:34.002Z,99.99
2023-03-16T07:18:33.969Z,64.01
2023-03-16T07:19:33.959Z,62.98
2023-03-16T07:20:33.947Z,99.99
2023-03-16T07:21:33.947Z,61.29
2023-03-16T07:22:33.932Z,99.99
2023-03-16T07:23:33.954Z,99.99
2023-03-16T07:24:33.905Z,99.99
2023-03-16T07:25:33.897Z,54.60
2023-03-16T07:26:33.889Z,54.05
2023-03-16T07:28:34.021Z,52.69
2023-03-16T07:29:33.858Z,51.94
2023-03-16T07:30:33.847Z,52.25
2023-03-16T07:31:33.878Z,53.17
2023-03-16T07:32:33.868Z,52.77
2023-03-16T07:33:33.819Z,54.01
2023-03-16T07:34:33.810Z,53.90
2023-03-16T07:35:33.796Z,54.29
2023-03-16T07:36:33.786Z,54.21
2023-03-16T07:37:33.777Z,54.60
2023-03-16T07:38:33.782Z,55.76
2023-03-16T07:39:33.803Z,55.76
2023-03-16T07:40:33.745Z,56.77
2023-03-16T07:41:33.735Z,57.08
2023-03-16T07:42:33.724Z,57.18
2023-03-16T07:43:33.709Z,56.33
2023-03-16T07:44:33.701Z,54.68
2023-03-16T07:46:33.917Z,53.62
2023-03-16T07:47:33.756Z,53.39
2023-03-16T07:48:33.664Z,54.32
2023-03-16T07:49:33.651Z,55.15
2023-03-16T07:50:33.640Z,55.46
2023-03-16T07:51:33.633Z,54.29
2023-03-16T07:52:35.793Z,53.55
2023-03-16T07:53:33.626Z,53.47
2023-03-16T07:54:33.597Z,99.99
2023-03-16T07:55:33.612Z,53.91
2023-03-16T07:56:47.522Z,52.38
2023-03-16T07:57:34.596Z,50.42
2023-03-16T07:58:33.560Z,45.12
2023-03-16T07:59:33.548Z,46.14
2023-03-16T08:00:33.535Z,0.00
2023-03-16T08:01:33.527Z,47.65
2023-03-16T08:02:33.604Z,47.11
2023-03-16T08:03:33.554Z,44.42
2023-03-16T08:04:33.501Z,42.98
2023-03-16T08:05:33.484Z,42.37
2023-03-16T08:06:33.474Z,46.26
2023-03-16T08:07:33.467Z,99.99
2023-03-16T08:08:33.455Z,44.92
2023-03-16T08:09:33.447Z,99.99
2023-03-16T08:10:33.497Z,43.17
2023-03-16T08:11:33.449Z,42.04
2023-03-16T08:12:33.500Z,42.34
2023-03-16T08:13:33.406Z,44.16
2023-03-16T08:14:33.396Z,43.54
2023-03-16T08:15:33.433Z,44.14
2023-03-16T08:16:33.463Z,43.40
2023-03-16T08:17:33.367Z,44.20
2023-03-16T08:18:33.351Z,43.34
2023-03-16T08:19:33.344Z,40.96
2023-03-16T08:20:33.338Z,40.01
2023-03-16T08:21:33.347Z,39.79
2023-03-16T08:22:33.315Z,40.08
2023-03-16T08:24:33.293Z,38.43
2023-03-16T08:25:33.294Z,38.85
2023-03-16T08:26:33.272Z,99.99
2023-03-16T08:27:33.325Z,38.35
2023-03-16T08:28:33.280Z,37.92
2023-03-16T08:29:33.244Z,38.52
2023-03-16T08:30:33.336Z,36.87
2023-03-16T08:31:33.312Z,36.76
2023-03-16T08:32:33.276Z,38.32
2023-03-16T08:33:33.208Z,38.59
2023-03-16T08:34:33.301Z,38.78
2023-03-16T08:35:33.228Z,37.38
2023-03-16T08:36:33.174Z,37.58
2023-03-16T08:37:33.161Z,37.87
2023-03-16T08:38:33.152Z,38.06
2023-03-16T08:39:33.146Z,36.34
2023-03-16T08:40:33.134Z,36.98
2023-03-16T08:41:33.124Z,38.34
2023-03-16T08:42:33.112Z,39.34
2023-03-16T08:43:33.140Z,38.50
2023-03-16T08:44:33.231Z,36.52
2023-03-16T08:45:33.083Z,38.75
2023-03-16T08:46:33.123Z,38.62
2023-03-16T08:47:33.063Z,39.00
2023-03-16T08:48:33.049Z,38.93
2023-03-16T08:49:33.041Z,37.62
2023-03-16T08:50:33.026Z,37.81
2023-03-16T08:51:33.022Z,38.28
2023-03-16T08:52:33.009Z,37.54
2023-03-16T08:53:33.000Z,38.06
2023-03-16T08:54:33.063Z,37.10
2023-03-16T08:55:32.988Z,36.61
2023-03-16T08:56:32.968Z,36.92
2023-03-16T08:57:32.955Z,36.18
2023-03-16T08:58:33.002Z,35.64
2023-03-16T08:59:32.967Z,34.69
2023-03-16T09:00:32.928Z,33.67
2023-03-16T09:01:32.975Z,34.66
2023-03-16T09:02:32.912Z,32.40
2023-03-16T09:03:32.893Z,31.87
2023-03-16T09:04:33.077Z,32.48
2023-03-16T09:05:32.876Z,33.31
2023-03-16T09:06:32.863Z,32.79
2023-03-16T09:07:32.852Z,30.34
2023-03-16T09:08:32.901Z,30.33
2023-03-16T09:09:32.832Z,30.43
2023-03-16T09:10:32.827Z,99.99
2023-03-16T09:11:32.815Z,30.74
2023-03-16T09:12:32.805Z,31.04
2023-03-16T09:13:32.802Z,31.35
2023-03-16T09:14:32.800Z,31.67
2023-03-16T09:15:32.809Z,31.26
2023-03-16T09:16:32.819Z,31.26
2023-03-16T09:17:32.752Z,31.96
2023-03-16T09:18:32.744Z,32.38
2023-03-16T09:19:49.955Z,30.74
2023-03-16T09:20:33.817Z,30.62
2023-03-16T09:21:32.710Z,32.03
2023-03-16T09:22:32.703Z,31.51
2023-03-16T09:23:32.696Z,31.50
2023-03-16T09:24:32.685Z,30.26
2023-03-16T09:25:32.695Z,30.56
2023-03-16T09:26:32.765Z,30.24
2023-03-16T09:27:32.650Z,30.46
2023-03-16T09:28:32.644Z,30.96
2023-03-16T09:29:32.634Z,31.04
2023-03-16T09:30:32.623Z,30.61
2023-03-16T09:31:32.648Z,29.39
2023-03-16T09:32:32.641Z,29.39
2023-03-16T09:33:32.590Z,29.71
2023-03-16T09:34:33.335Z,31.25
2023-03-16T09:35:35.015Z,31.74
2023-03-16T09:36:32.561Z,30.20
2023-03-16T09:37:44.519Z,30.96
2023-03-16T09:38:33.667Z,32.48
2023-03-16T09:39:32.531Z,31.33
2023-03-16T09:40:32.523Z,30.82
2023-03-16T09:41:32.512Z,31.51
2023-03-16T09:42:32.505Z,29.96
2023-03-16T09:43:32.498Z,28.74
2023-03-16T09:44:32.484Z,29.24
2023-03-16T09:45:32.947Z,30.35
2023-03-16T09:46:33.916Z,28.96
2023-03-16T09:47:32.476Z,29.58
2023-03-16T09:48:32.454Z,29.61
2023-03-16T09:49:32.458Z,29.49
2023-03-16T09:50:47.112Z,29.46
2023-03-16T09:51:32.429Z,29.45
2023-03-16T09:52:32.403Z,29.25
2023-03-16T09:53:32.397Z,28.16
2023-03-16T09:54:32.425Z,30.63
2023-03-16T09:55:32.377Z,30.01
2023-03-16T09:56:32.369Z,30.81
2023-03-16T09:57:32.458Z,29.57
2023-03-16T09:59:32.359Z,29.37
2023-03-16T10:00:32.350Z,30.26
2023-03-16T10:01:32.446Z,29.13
2023-03-16T10:02:32.317Z,29.19
2023-03-16T10:03:32.361Z,28.07
2023-03-16T10:04:32.302Z,28.28
2023-03-16T10:05:32.273Z,27.38
2023-03-16T10:08:32.254Z,99.99
2023-03-16T10:09:32.237Z,99.99
2023-03-16T10:14:32.189Z,28.60
2023-03-16T10:15:32.183Z,30.59
2023-03-16T10:16:32.225Z,30.97
2023-03-16T10:18:32.156Z,99.99
2023-03-16T10:21:32.126Z,27.66
2023-03-16T10:23:32.097Z,25.39
2023-03-16T10:29:32.056Z,99.99
2023-03-16T10:30:32.027Z,27.75
2023-03-16T10:32:32.078Z,25.83
2023-03-16T10:33:31.999Z,26.08
2023-03-16T10:34:32.019Z,28.54
2023-03-16T10:35:32.007Z,28.28
2023-03-16T10:36:31.984Z,29.29
2023-03-16T10:37:31.963Z,29.57
2023-03-16T10:38:31.971Z,28.53
2023-03-16T10:39:31.936Z,27.98
2023-03-16T10:40:31.929Z,28.25
2023-03-16T10:41:31.924Z,26.31
2023-03-16T10:42:31.948Z,26.00
2023-03-16T10:43:31.904Z,27.00
2023-03-16T10:44:31.892Z,26.89
2023-03-16T10:45:32.264Z,25.17
2023-03-16T10:46:31.997Z,25.48
2023-03-16T10:47:31.878Z,24.67
2023-03-16T10:48:33.933Z,23.85
2023-03-16T10:49:33.449Z,24.65
2023-03-16T10:50:31.836Z,23.95
2023-03-16T10:51:31.856Z,23.55
2023-03-16T10:52:31.820Z,24.74
2023-03-16T10:53:31.818Z,24.83
2023-03-16T10:54:31.818Z,24.40
2023-03-16T10:55:31.789Z,24.15
2023-03-16T10:56:31.800Z,25.26
2023-03-16T10:57:31.780Z,25.45
2023-03-16T10:58:31.776Z,24.62
2023-03-16T10:59:31.757Z,24.64
2023-03-16T11:00:31.745Z,25.67
2023-03-16T11:01:31.776Z,24.05
2023-03-16T11:02:31.738Z,25.16
2023-03-16T11:03:31.767Z,24.65
2023-03-16T11:04:31.815Z,27.83
2023-03-16T11:05:31.933Z,26.08
2023-03-16T11:06:31.687Z,24.80
2023-03-16T11:07:31.697Z,24.05
2023-03-16T11:08:31.694Z,23.52
2023-03-16T11:09:31.655Z,24.69
2023-03-16T11:10:33.173Z,24.80
2023-03-16T11:11:31.637Z,26.11
2023-03-16T11:12:31.630Z,25.04
2023-03-16T11:13:31.618Z,25.03
2023-03-16T11:14:31.605Z,23.40
2023-03-16T11:15:31.761Z,24.89
2023-03-16T11:16:31.719Z,23.18
2023-03-16T11:17:31.577Z,24.38
2023-03-16T11:18:31.569Z,24.47
2023-03-16T11:19:31.566Z,23.87
2023-03-16T11:20:31.556Z,23.97
2023-03-16T11:21:31.546Z,99.99
2023-03-16T11:22:31.536Z,27.89
2023-03-16T11:23:31.552Z,27.66
2023-03-16T11:24:31.517Z,28.22
2023-03-16T11:25:31.527Z,28.40
2023-03-16T11:26:31.514Z,27.36
2023-03-16T11:27:31.496Z,27.38
2023-03-16T11:28:31.482Z,27.27
2023-03-16T11:29:31.472Z,28.17
2023-03-16T11:30:31.464Z,27.85
2023-03-16T11:31:31.682Z,27.97
2023-03-16T11:32:31.490Z,27.47
2023-03-16T11:36:06.598Z,29.21
2023-03-16T11:36:08.035Z,24.97
2023-03-16T11:37:07.975Z,25.19
2023-03-16T11:38:07.967Z,27.07
2023-03-16T11:39:07.993Z,27.19
2023-03-16T11:41:35.115Z,27.35
2023-03-16T11:41:36.535Z,25.06
2023-03-16T11:42:36.535Z,24.65
2023-03-16T11:45:58.070Z,25.65
2023-03-16T11:45:59.539Z,24.95
2023-03-16T12:01:23.812Z,26.36
2023-03-16T12:01:25.282Z,24.79
2023-03-16T15:13:14.306Z,26.86
2023-03-16T16:02:25.236Z,25.40
2023-03-16T16:02:26.665Z,27.09
2023-03-16T16:03:33.857Z,28.32
2023-03-16T16:04:26.667Z,27.32
2023-03-16T16:05:26.633Z,28.42
2023-03-16T16:06:26.626Z,27.84
2023-03-16T16:07:26.628Z,30.06
2023-03-16T16:08:26.610Z,29.27
2023-03-16T16:24:24.323Z,29.09
2023-03-16T16:24:25.742Z,26.25
2023-03-16T16:26:54.321Z,26.06
2023-03-16T16:26:56.444Z,27.63
2023-03-16T16:28:40.959Z,28.33
2023-03-16T16:28:56.405Z,28.23
2023-03-16T16:29:56.394Z,27.80
2023-03-16T16:30:56.380Z,27.00
2023-03-16T16:31:56.479Z,27.70
2023-03-16T16:32:58.608Z,28.17
2023-03-16T16:33:56.352Z,27.39
2023-03-16T16:35:04.112Z,28.39
2023-03-16T16:35:57.430Z,27.21
2023-03-16T16:36:56.365Z,27.61
2023-03-16T16:37:56.314Z,28.24
2023-03-16T16:38:56.305Z,28.16
2023-03-16T16:39:56.320Z,30.02
2023-03-16T16:40:56.287Z,29.91
2023-03-16T16:41:56.299Z,30.20
2023-03-16T16:42:56.266Z,29.79
2023-03-16T16:43:56.256Z,28.88
2023-03-16T16:44:56.245Z,28.76
2023-03-16T16:45:56.283Z,29.58
2023-03-16T16:46:56.239Z,29.29
2023-03-16T16:47:56.223Z,30.00
2023-03-16T16:48:56.205Z,29.21
2023-03-16T16:49:56.201Z,29.52
2023-03-16T16:50:56.189Z,30.65
2023-03-16T16:51:56.182Z,30.63
2023-03-16T16:52:56.166Z,30.94
2023-03-16T16:53:56.155Z,30.13
2023-03-16T16:54:56.150Z,30.04
2023-03-16T16:55:56.159Z,30.77
2023-03-16T16:56:56.132Z,31.09
2023-03-16T16:57:56.125Z,30.98
2023-03-16T16:58:56.104Z,32.52
2023-03-16T16:59:56.097Z,32.42
2023-03-16T17:00:56.123Z,32.65
2023-03-16T17:01:56.082Z,32.34
2023-03-16T17:02:56.068Z,34.29
2023-03-16T17:03:56.059Z,33.49
2023-03-16T17:04:56.137Z,34.40
2023-03-16T17:05:56.052Z,36.66
2023-03-16T17:06:56.080Z,35.94
2023-03-16T17:07:56.026Z,36.66
2023-03-16T17:08:56.011Z,36.15
2023-03-16T17:09:56.000Z,37.27
2023-03-16T17:10:55.988Z,35.96
2023-03-16T17:11:56.037Z,36.66
2023-03-16T17:12:56.044Z,36.37
2023-03-16T17:13:55.954Z,36.57
2023-03-16T17:14:55.947Z,36.70
2023-03-16T17:15:55.933Z,37.31
2023-03-16T17:16:56.024Z,37.02
2023-03-16T17:17:55.912Z,37.02
2023-03-16T17:18:55.906Z,38.24
2023-03-16T17:19:55.895Z,37.73
2023-03-16T17:20:55.886Z,37.95
2023-03-16T17:21:55.878Z,38.77
2023-03-16T17:22:55.863Z,38.07
2023-03-16T17:23:55.853Z,39.22
2023-03-16T17:24:55.860Z,38.81
2023-03-16T17:25:55.836Z,38.83
2023-03-16T17:26:55.838Z,39.54
2023-03-16T17:27:55.854Z,39.66
2023-03-16T17:28:55.803Z,40.07
2023-03-16T17:29:55.795Z,40.58
2023-03-16T17:30:55.816Z,40.39
2023-03-16T17:31:55.773Z,40.19
2023-03-16T17:32:55.821Z,40.50
2023-03-16T17:33:55.753Z,41.23
2023-03-16T17:34:55.741Z,40.41
2023-03-16T17:35:55.801Z,40.82
2023-03-16T17:36:55.751Z,40.41
2023-03-16T17:37:55.713Z,40.84
2023-03-16T17:38:55.755Z,43.50
2023-03-16T17:39:57.525Z,42.91
2023-03-16T17:40:55.690Z,43.11
2023-03-16T17:41:55.675Z,43.01
2023-03-16T17:42:55.665Z,42.50
2023-03-16T17:43:55.687Z,42.82
2023-03-16T17:44:55.644Z,44.06
2023-03-16T17:45:55.721Z,43.34
2023-03-16T17:46:55.627Z,42.93
2023-03-16T17:47:55.615Z,43.13
2023-03-16T17:48:55.620Z,42.93
2023-03-16T17:49:55.600Z,42.73
2023-03-16T17:50:55.592Z,43.03
2023-03-16T17:51:55.574Z,42.93
2023-03-16T17:52:55.563Z,43.34
2023-03-16T17:53:55.550Z,43.54
2023-03-16T17:54:55.564Z,43.34
2023-03-16T17:55:55.535Z,43.95
2023-03-16T17:56:55.525Z,43.75
2023-03-16T17:57:55.512Z,43.46
2023-03-16T18:00:55.491Z,43.56
2023-03-16T18:01:55.543Z,43.87
2023-03-16T18:02:55.456Z,43.87
2023-03-16T18:07:55.408Z,45.02
2023-03-16T18:08:55.395Z,45.53
2023-03-16T18:09:55.385Z,45.22
2023-03-16T18:10:55.373Z,45.33
2023-03-16T18:11:55.370Z,45.14
2023-03-16T18:12:55.352Z,45.35
2023-03-16T18:29:55.187Z,48.88
2023-03-16T18:30:55.231Z,48.57
2023-03-16T18:38:55.096Z,49.70
2023-03-16T18:42:55.080Z,49.70
2023-03-16T18:43:55.054Z,49.60
2023-03-16T19:22:54.642Z,52.63
2023-03-16T19:24:54.670Z,52.42
2023-03-16T20:15:54.109Z,53.60
2023-03-16T20:17:54.078Z,53.81
2023-03-16T20:20:54.055Z,54.22
2023-03-16T20:21:54.049Z,54.12
2023-03-16T21:33:53.304Z,54.60
2023-03-16T21:37:53.262Z,57.28
2023-03-16T21:48:53.170Z,55.97
2023-03-16T21:49:53.143Z,57.72
2023-03-16T21:50:53.181Z,57.51
2023-03-16T21:51:53.118Z,56.28
2023-03-16T21:53:53.098Z,55.02
2023-03-16T21:54:53.096Z,55.23
2023-03-16T21:55:53.082Z,55.12
2023-03-16T21:56:53.167Z,54.60
2023-03-16T21:57:53.060Z,54.19
2023-03-16T21:58:53.048Z,54.60
2023-03-16T21:59:53.067Z,54.30
2023-03-16T22:00:53.028Z,54.40
2023-03-16T22:02:01.590Z,54.19
2023-03-16T22:03:53.213Z,54.30
2023-03-16T22:04:53.001Z,54.51
2023-03-16T22:05:52.976Z,54.81
2023-03-16T22:06:52.985Z,55.02
2023-03-16T22:07:52.955Z,55.23
2023-03-16T22:08:52.951Z,55.33
2023-03-16T22:09:52.941Z,55.33
2023-03-16T22:10:52.926Z,55.43
2023-03-16T22:11:52.918Z,56.07
2023-03-16T22:12:52.903Z,55.87
2023-03-16T22:13:52.896Z,55.87
2023-03-16T22:14:52.885Z,55.46
2023-03-16T22:15:53.023Z,55.56
2023-03-16T22:16:52.860Z,55.66
2023-03-16T22:17:52.869Z,56.07
2023-03-16T22:18:52.842Z,56.07
2023-03-16T22:19:52.834Z,56.59
2023-03-16T22:20:52.825Z,56.31
2023-03-16T22:21:52.820Z,56.31
2023-03-16T22:22:52.798Z,56.41
2023-03-16T22:23:52.789Z,57.13
2023-03-16T22:24:52.778Z,57.23
2023-03-16T22:26:52.766Z,57.03
2023-03-16T22:27:52.749Z,57.13
2023-03-16T22:28:52.741Z,57.03
2023-03-16T22:29:52.734Z,57.34
2023-03-16T22:30:52.720Z,57.34
2023-03-16T22:31:52.769Z,56.92
2023-03-16T22:33:52.702Z,57.23
2023-03-16T22:34:52.697Z,57.23
2023-03-16T22:37:52.661Z,57.13
2023-03-16T22:38:52.642Z,57.26
2023-03-16T22:39:52.632Z,58.09
2023-03-16T22:41:52.608Z,58.39
2023-03-16T22:44:52.574Z,58.19
2023-03-16T22:45:52.574Z,58.19
2023-03-16T22:48:52.540Z,58.39
2023-03-16T22:49:52.524Z,58.94
2023-03-16T22:50:52.519Z,59.77
2023-03-16T22:52:52.503Z,60.38
2023-03-16T22:53:52.490Z,60.52
2023-03-16T22:54:52.484Z,60.10
2023-03-16T22:55:52.464Z,60.62
2023-03-16T22:56:52.453Z,60.82
2023-03-16T22:57:52.441Z,61.24
2023-03-16T22:58:52.436Z,61.99
2023-03-16T23:00:52.434Z,62.51
